AAL2515 KPHX-KPDX
Flight info
| Callsign | AAL2515 |
|---|---|
| Flight time | N/A |
| Altitude | 36000 |
| Route | QUAKY1 GCN WINEN KU51M REO JOTBA HHOOD6 |
| Aircraft | B738/M-SDE2E3FGHIRWXY/LB1 |
Departure
| Time | 2026-04-30 22:14 |
|---|---|
| Airport | Phoenix Sky Harbor International Airport (KPHX) |
Arrival
| Time | N/A |
|---|---|
| Airport | Portland International Airport (KPDX) |
| Time | Latitude | Longitude | Altitude | Speed | Heading |
|---|---|---|---|---|---|
| 2026-04-30 21:55 | 33.43760 | -112.00115 | 1114 ft | 0 kts | 270° |
| 2026-04-30 22:04 | 33.43760 | -112.00103 | 1123 ft | 2 kts | 270° |
| 2026-04-30 22:04 | 33.43760 | -112.00076 | 1123 ft | 2 kts | 270° |
| 2026-04-30 22:05 | 33.43757 | -112.00064 | 1123 ft | 1 kts | 328° |
| 2026-04-30 22:05 | 33.43756 | -112.00063 | 1113 ft | 0 kts | 334° |
| 2026-04-30 22:06 | 33.43758 | -112.00064 | 1113 ft | 1 kts | 334° |
| 2026-04-30 22:07 | 33.43765 | -112.00068 | 1123 ft | 3 kts | 335° |
| 2026-04-30 22:07 | 33.43804 | -112.00081 | 1123 ft | 6 kts | 0° |
| 2026-04-30 22:07 | 33.43838 | -112.00080 | 1123 ft | 8 kts | 1° |
| 2026-04-30 22:07 | 33.43905 | -112.00126 | 1123 ft | 10 kts | 276° |
| 2026-04-30 22:08 | 33.43905 | -112.00219 | 1119 ft | 12 kts | 270° |
| 2026-04-30 22:08 | 33.43905 | -112.00315 | 1119 ft | 11 kts | 270° |
| 2026-04-30 22:08 | 33.43891 | -112.00374 | 1116 ft | 11 kts | 226° |
| 2026-04-30 22:08 | 33.43818 | -112.00376 | 1119 ft | 11 kts | 172° |
| 2026-04-30 22:09 | 33.43744 | -112.00376 | 1123 ft | 10 kts | 181° |
| 2026-04-30 22:09 | 33.43672 | -112.00378 | 1119 ft | 10 kts | 181° |
| 2026-04-30 22:09 | 33.43602 | -112.00380 | 1123 ft | 10 kts | 181° |
| 2026-04-30 22:09 | 33.43534 | -112.00381 | 1123 ft | 10 kts | 179° |
| 2026-04-30 22:10 | 33.43468 | -112.00381 | 1121 ft | 9 kts | 180° |
| 2026-04-30 22:10 | 33.43404 | -112.00380 | 1121 ft | 9 kts | 180° |
| 2026-04-30 22:10 | 33.43341 | -112.00380 | 1123 ft | 9 kts | 180° |
| 2026-04-30 22:10 | 33.43280 | -112.00380 | 1123 ft | 9 kts | 180° |
| 2026-04-30 22:11 | 33.43213 | -112.00297 | 1124 ft | 9 kts | 89° |
| 2026-04-30 22:11 | 33.43214 | -112.00212 | 1121 ft | 11 kts | 89° |
| 2026-04-30 22:11 | 33.43215 | -112.00107 | 1120 ft | 14 kts | 90° |
| 2026-04-30 22:12 | 33.43214 | -111.99980 | 1120 ft | 16 kts | 90° |
| 2026-04-30 22:12 | 33.43215 | -111.99835 | 1123 ft | 18 kts | 90° |
| 2026-04-30 22:12 | 33.43215 | -111.99681 | 1120 ft | 18 kts | 90° |
| 2026-04-30 22:12 | 33.43215 | -111.99532 | 1116 ft | 18 kts | 90° |
| 2026-04-30 22:13 | 33.43215 | -111.99391 | 1118 ft | 12 kts | 91° |
| 2026-04-30 22:13 | 33.43162 | -111.99341 | 1120 ft | 11 kts | 181° |
| 2026-04-30 22:13 | 33.43104 | -111.99382 | 1122 ft | 11 kts | 265° |
| 2026-04-30 22:13 | 33.43104 | -111.99472 | 1115 ft | 12 kts | 269° |
| 2026-04-30 22:14 | 33.43104 | -111.99762 | 1120 ft | 68 kts | 270° |
| 2026-04-30 22:14 | 33.43104 | -112.00599 | 1122 ft | 131 kts | 270° |
| 2026-04-30 22:14 | 33.43109 | -112.01905 | 1177 ft | 177 kts | 271° |
| 2026-04-30 22:14 | 33.43133 | -112.03389 | 1893 ft | 178 kts | 271° |
| 2026-04-30 22:15 | 33.43164 | -112.04873 | 2671 ft | 180 kts | 272° |
| 2026-04-30 22:15 | 33.43217 | -112.06419 | 3192 ft | 192 kts | 272° |
| 2026-04-30 22:15 | 33.43264 | -112.08069 | 3663 ft | 202 kts | 270° |
| 2026-04-30 22:15 | 33.43284 | -112.09777 | 4110 ft | 209 kts | 269° |
| 2026-04-30 22:16 | 33.43305 | -112.11567 | 4437 ft | 222 kts | 269° |
| 2026-04-30 22:16 | 33.43334 | -112.13471 | 4720 ft | 236 kts | 269° |
| 2026-04-30 22:17 | 33.44944 | -112.19173 | 6184 ft | 266 kts | 327° |
| 2026-04-30 22:17 | 33.46708 | -112.19821 | 6833 ft | 272 kts | 358° |
| 2026-04-30 22:17 | 33.50438 | -112.19394 | 8280 ft | 269 kts | 5° |
| 2026-04-30 22:18 | 33.52330 | -112.19145 | 8767 ft | 278 kts | 5° |
| 2026-04-30 22:18 | 33.56240 | -112.18496 | 9724 ft | 296 kts | 9° |
| 2026-04-30 22:19 | 33.60438 | -112.17390 | 10352 ft | 327 kts | 16° |
| 2026-04-30 22:19 | 33.62483 | -112.16052 | 10493 ft | 348 kts | 42° |
| 2026-04-30 22:19 | 33.65915 | -112.11669 | 11243 ft | 368 kts | 47° |
| 2026-04-30 22:20 | 33.67649 | -112.09389 | 11887 ft | 370 kts | 47° |
| 2026-04-30 22:20 | 33.71163 | -112.04866 | 13243 ft | 372 kts | 46° |
| 2026-04-30 22:20 | 33.72945 | -112.02597 | 13843 ft | 376 kts | 46° |
| 2026-04-30 22:21 | 33.74928 | -112.00546 | 14397 ft | 379 kts | 28° |
| 2026-04-30 22:21 | 33.77393 | -111.99457 | 15015 ft | 379 kts | 9° |
| 2026-04-30 22:21 | 33.79968 | -111.98944 | 15657 ft | 381 kts | 7° |
| 2026-04-30 22:21 | 33.82602 | -111.98484 | 16261 ft | 385 kts | 6° |
| 2026-04-30 22:22 | 33.85263 | -111.98023 | 16847 ft | 387 kts | 6° |
| 2026-04-30 22:22 | 33.87942 | -111.97552 | 17388 ft | 391 kts | 6° |
| 2026-04-30 22:22 | 33.90647 | -111.97059 | 17940 ft | 395 kts | 6° |
| 2026-04-30 22:22 | 33.93372 | -111.96550 | 18490 ft | 399 kts | 6° |
| 2026-04-30 22:23 | 33.96126 | -111.96030 | 19029 ft | 402 kts | 6° |
| 2026-04-30 22:23 | 33.98903 | -111.95501 | 19556 ft | 406 kts | 6° |
| 2026-04-30 22:23 | 34.01703 | -111.94967 | 20082 ft | 409 kts | 6° |
| 2026-04-30 22:23 | 34.04526 | -111.94430 | 20574 ft | 413 kts | 6° |
| 2026-04-30 22:24 | 34.07381 | -111.93886 | 21029 ft | 417 kts | 6° |
| 2026-04-30 22:24 | 34.10265 | -111.93522 | 21455 ft | 417 kts | 355° |
| 2026-04-30 22:24 | 34.13155 | -111.93759 | 21896 ft | 418 kts | 350° |
| 2026-04-30 22:24 | 34.16053 | -111.94143 | 22338 ft | 420 kts | 349° |
| 2026-04-30 22:25 | 34.18970 | -111.94546 | 22756 ft | 423 kts | 349° |
| 2026-04-30 22:25 | 34.21906 | -111.94930 | 23187 ft | 426 kts | 350° |
| 2026-04-30 22:25 | 34.24869 | -111.95289 | 23593 ft | 429 kts | 350° |
| 2026-04-30 22:25 | 34.27854 | -111.95632 | 23976 ft | 433 kts | 350° |
| 2026-04-30 22:26 | 34.33898 | -111.96299 | 24642 ft | 440 kts | 350° |
| 2026-04-30 22:26 | 34.36968 | -111.96637 | 24919 ft | 445 kts | 349° |
| 2026-04-30 22:26 | 34.40067 | -111.96978 | 25209 ft | 450 kts | 349° |
| 2026-04-30 22:27 | 34.43195 | -111.97325 | 25531 ft | 453 kts | 349° |
| 2026-04-30 22:27 | 34.46347 | -111.97675 | 25854 ft | 457 kts | 349° |
| 2026-04-30 22:27 | 34.52755 | -111.98334 | 26383 ft | 465 kts | 349° |
| 2026-04-30 22:28 | 34.59195 | -111.99080 | 26999 ft | 470 kts | 348° |
| 2026-04-30 22:28 | 34.62506 | -111.99460 | 27268 ft | 476 kts | 348° |
| 2026-04-30 22:29 | 34.72471 | -112.00563 | 28124 ft | 482 kts | 349° |
| 2026-04-30 22:29 | 34.75775 | -112.00930 | 28415 ft | 483 kts | 349° |
| 2026-04-30 22:30 | 34.89276 | -112.02448 | 29469 ft | 490 kts | 349° |
| 2026-04-30 22:31 | 34.99488 | -112.03602 | 30490 ft | 488 kts | 349° |
| 2026-04-30 22:32 | 35.09588 | -112.04740 | 31522 ft | 485 kts | 349° |
| 2026-04-30 22:32 | 35.16290 | -112.05500 | 32175 ft | 482 kts | 349° |
| 2026-04-30 22:33 | 35.26285 | -112.06636 | 33034 ft | 481 kts | 349° |
| 2026-04-30 22:33 | 35.32935 | -112.07391 | 33626 ft | 478 kts | 348° |
| 2026-04-30 22:34 | 35.42899 | -112.08452 | 34325 ft | 480 kts | 349° |
| 2026-04-30 22:35 | 35.49535 | -112.09092 | 34845 ft | 478 kts | 349° |
| 2026-04-30 22:36 | 35.62792 | -112.10578 | 35689 ft | 477 kts | 348° |
| 2026-04-30 22:36 | 35.66100 | -112.10988 | 35825 ft | 479 kts | 348° |
| 2026-04-30 22:37 | 35.76077 | -112.12203 | 36050 ft | 482 kts | 348° |
| 2026-04-30 22:37 | 35.79417 | -112.12603 | 36051 ft | 481 kts | 348° |
| 2026-04-30 22:38 | 35.92604 | -112.14187 | 36055 ft | 475 kts | 347° |
| 2026-04-30 22:38 | 35.98768 | -112.16227 | 36073 ft | 447 kts | 323° |
| 2026-04-30 22:39 | 36.01522 | -112.18133 | 36062 ft | 451 kts | 323° |
| 2026-04-30 22:40 | 36.18207 | -112.29448 | 36066 ft | 459 kts | 324° |
| 2026-04-30 22:41 | 36.32197 | -112.38805 | 36054 ft | 448 kts | 323° |
| 2026-04-30 22:43 | 36.48625 | -112.49935 | 36024 ft | 448 kts | 325° |
| 2026-04-30 22:44 | 36.59545 | -112.57327 | 36021 ft | 446 kts | 325° |
| 2026-04-30 22:45 | 36.75801 | -112.68393 | 36028 ft | 442 kts | 325° |
| 2026-04-30 22:47 | 36.91917 | -112.79410 | 36026 ft | 438 kts | 326° |
| 2026-04-30 22:48 | 37.02554 | -112.86712 | 36014 ft | 437 kts | 326° |
| 2026-04-30 22:49 | 37.18446 | -112.97669 | 36009 ft | 433 kts | 326° |
| 2026-04-30 22:51 | 37.34206 | -113.08586 | 36022 ft | 430 kts | 326° |
| 2026-04-30 22:52 | 37.42061 | -113.14048 | 36027 ft | 430 kts | 326° |
| 2026-04-30 22:53 | 37.52529 | -113.21341 | 36034 ft | 429 kts | 326° |
| 2026-04-30 22:53 | 37.60345 | -113.26809 | 36055 ft | 427 kts | 326° |
| 2026-04-30 22:55 | 37.73302 | -113.35896 | 36062 ft | 425 kts | 326° |
| 2026-04-30 22:56 | 37.83626 | -113.43166 | 36069 ft | 424 kts | 326° |
| 2026-04-30 22:57 | 37.96321 | -113.52510 | 36069 ft | 421 kts | 321° |
| 2026-04-30 22:58 | 38.05119 | -113.60309 | 36077 ft | 419 kts | 321° |
| 2026-04-30 22:59 | 38.19449 | -113.72934 | 36054 ft | 418 kts | 321° |